sensor_id;sensor_type;location;lat;lon;timestamp;P1;durP1;ratioP1;P2;durP2;ratioP2
21860;SDS011;11095;48.066;8.540;2022-09-17T00:01:06;1.58;;;0.90;;
21860;SDS011;11095;48.066;8.540;2022-09-17T00:03:33;1.15;;;0.80;;
21860;SDS011;11095;48.066;8.540;2022-09-17T00:06:06;0.90;;;0.73;;
21860;SDS011;11095;48.066;8.540;2022-09-17T00:08:33;0.60;;;0.60;;
21860;SDS011;11095;48.066;8.540;2022-09-17T00:11:10;2.55;;;0.80;;
21860;SDS011;11095;48.066;8.540;2022-09-17T00:13:40;2.42;;;0.90;;
21860;SDS011;11095;48.066;8.540;2022-09-17T00:16:07;1.30;;;0.80;;
21860;SDS011;11095;48.066;8.540;2022-09-17T00:18:32;1.00;;;0.90;;
21860;SDS011;11095;48.066;8.540;2022-09-17T00:21:00;1.40;;;0.90;;
21860;SDS011;11095;48.066;8.540;2022-09-17T00:23:27;1.95;;;0.80;;
21860;SDS011;11095;48.066;8.540;2022-09-17T00:25:53;1.85;;;0.90;;
21860;SDS011;11095;48.066;8.540;2022-09-17T00:28:19;1.48;;;0.98;;
21860;SDS011;11095;48.066;8.540;2022-09-17T00:30:45;1.27;;;0.80;;
21860;SDS011;11095;48.066;8.540;2022-09-17T00:33:11;1.98;;;0.90;;
21860;SDS011;11095;48.066;8.540;2022-09-17T00:35:38;1.20;;;0.95;;
21860;SDS011;11095;48.066;8.540;2022-09-17T00:38:04;2.35;;;1.15;;
21860;SDS011;11095;48.066;8.540;2022-09-17T00:40:30;1.10;;;1.00;;
21860;SDS011;11095;48.066;8.540;2022-09-17T00:42:55;2.30;;;1.10;;
21860;SDS011;11095;48.066;8.540;2022-09-17T00:45:21;2.20;;;1.10;;
21860;SDS011;11095;48.066;8.540;2022-09-17T00:47:56;2.92;;;1.20;;
21860;SDS011;11095;48.066;8.540;2022-09-17T00:52:54;1.67;;;0.93;;
21860;SDS011;11095;48.066;8.540;2022-09-17T00:55:33;1.75;;;1.10;;
21860;SDS011;11095;48.066;8.540;2022-09-17T00:58:22;1.38;;;1.10;;
21860;SDS011;11095;48.066;8.540;2022-09-17T01:00:50;2.45;;;1.00;;
21860;SDS011;11095;48.066;8.540;2022-09-17T01:03:15;1.05;;;1.00;;
21860;SDS011;11095;48.066;8.540;2022-09-17T01:16:42;1.83;;;1.20;;
21860;SDS011;11095;48.066;8.540;2022-09-17T01:22:00;1.65;;;1.10;;
21860;SDS011;11095;48.066;8.540;2022-09-17T01:36:25;2.13;;;1.02;;
21860;SDS011;11095;48.066;8.540;2022-09-17T01:39:02;1.38;;;0.93;;
21860;SDS011;11095;48.066;8.540;2022-09-17T01:41:46;1.35;;;0.98;;
21860;SDS011;11095;48.066;8.540;2022-09-17T01:49:40;1.08;;;0.98;;
21860;SDS011;11095;48.066;8.540;2022-09-17T01:52:06;1.20;;;1.10;;
21860;SDS011;11095;48.066;8.540;2022-09-17T01:54:36;1.85;;;1.10;;
21860;SDS011;11095;48.066;8.540;2022-09-17T01:59:45;1.20;;;1.10;;
21860;SDS011;11095;48.066;8.540;2022-09-17T02:02:25;1.00;;;0.90;;
21860;SDS011;11095;48.066;8.540;2022-09-17T02:07:29;1.88;;;1.00;;
21860;SDS011;11095;48.066;8.540;2022-09-17T02:10:10;2.17;;;1.27;;
21860;SDS011;11095;48.066;8.540;2022-09-17T02:12:41;1.63;;;1.20;;
21860;SDS011;11095;48.066;8.540;2022-09-17T02:15:14;0.90;;;0.90;;
21860;SDS011;11095;48.066;8.540;2022-09-17T02:17:46;1.33;;;1.20;;
21860;SDS011;11095;48.066;8.540;2022-09-17T02:22:48;1.73;;;1.20;;
21860;SDS011;11095;48.066;8.540;2022-09-17T02:25:22;1.77;;;1.40;;
21860;SDS011;11095;48.066;8.540;2022-09-17T02:28:04;1.58;;;1.35;;
21860;SDS011;11095;48.066;8.540;2022-09-17T02:30:48;1.90;;;1.50;;
21860;SDS011;11095;48.066;8.540;2022-09-17T02:33:14;1.38;;;1.20;;
21860;SDS011;11095;48.066;8.540;2022-09-17T02:35:42;2.03;;;1.17;;
21860;SDS011;11095;48.066;8.540;2022-09-17T02:38:08;2.08;;;1.50;;
21860;SDS011;11095;48.066;8.540;2022-09-17T02:40:35;1.42;;;1.25;;
21860;SDS011;11095;48.066;8.540;2022-09-17T02:43:18;1.33;;;1.15;;
21860;SDS011;11095;48.066;8.540;2022-09-17T03:01:50;1.88;;;1.20;;
21860;SDS011;11095;48.066;8.540;2022-09-17T03:04:17;1.45;;;1.05;;
21860;SDS011;11095;48.066;8.540;2022-09-17T03:06:46;1.30;;;1.20;;
21860;SDS011;11095;48.066;8.540;2022-09-17T03:09:14;1.58;;;1.15;;
21860;SDS011;11095;48.066;8.540;2022-09-17T03:11:40;1.30;;;1.20;;
21860;SDS011;11095;48.066;8.540;2022-09-17T03:14:06;2.28;;;1.17;;
21860;SDS011;11095;48.066;8.540;2022-09-17T03:16:32;1.98;;;1.30;;
21860;SDS011;11095;48.066;8.540;2022-09-17T03:18:57;1.40;;;1.10;;
21860;SDS011;11095;48.066;8.540;2022-09-17T03:21:23;1.65;;;1.13;;
21860;SDS011;11095;48.066;8.540;2022-09-17T03:23:49;3.17;;;1.30;;
21860;SDS011;11095;48.066;8.540;2022-09-17T03:26:15;2.22;;;1.05;;
21860;SDS011;11095;48.066;8.540;2022-09-17T03:28:40;1.35;;;0.95;;
21860;SDS011;11095;48.066;8.540;2022-09-17T03:31:06;1.38;;;1.10;;
21860;SDS011;11095;48.066;8.540;2022-09-17T03:33:32;2.10;;;1.02;;
21860;SDS011;11095;48.066;8.540;2022-09-17T03:35:57;1.55;;;1.10;;
21860;SDS011;11095;48.066;8.540;2022-09-17T03:38:23;1.40;;;1.00;;
21860;SDS011;11095;48.066;8.540;2022-09-17T03:41:22;1.73;;;0.90;;
21860;SDS011;11095;48.066;8.540;2022-09-17T03:43:41;1.10;;;0.90;;
21860;SDS011;11095;48.066;8.540;2022-09-17T03:46:06;2.15;;;1.00;;
21860;SDS011;11095;48.066;8.540;2022-09-17T03:48:32;1.08;;;0.98;;
21860;SDS011;11095;48.066;8.540;2022-09-17T03:51:01;2.10;;;0.90;;
21860;SDS011;11095;48.066;8.540;2022-09-17T03:53:26;1.77;;;1.00;;
21860;SDS011;11095;48.066;8.540;2022-09-17T03:55:52;2.17;;;1.00;;
21860;SDS011;11095;48.066;8.540;2022-09-17T03:58:18;2.58;;;1.00;;
21860;SDS011;11095;48.066;8.540;2022-09-17T04:00:43;2.13;;;1.17;;
21860;SDS011;11095;48.066;8.540;2022-09-17T04:03:09;1.40;;;0.90;;
21860;SDS011;11095;48.066;8.540;2022-09-17T04:05:35;3.00;;;1.00;;
21860;SDS011;11095;48.066;8.540;2022-09-17T04:08:00;1.45;;;1.10;;
21860;SDS011;11095;48.066;8.540;2022-09-17T04:10:26;1.40;;;0.90;;
21860;SDS011;11095;48.066;8.540;2022-09-17T04:12:53;1.00;;;0.90;;
21860;SDS011;11095;48.066;8.540;2022-09-17T04:15:18;1.77;;;1.10;;
21860;SDS011;11095;48.066;8.540;2022-09-17T04:17:44;2.33;;;1.10;;
21860;SDS011;11095;48.066;8.540;2022-09-17T04:20:10;1.38;;;0.80;;
21860;SDS011;11095;48.066;8.540;2022-09-17T04:22:35;1.33;;;1.00;;
21860;SDS011;11095;48.066;8.540;2022-09-17T04:25:01;1.20;;;0.90;;
21860;SDS011;11095;48.066;8.540;2022-09-17T04:27:26;2.05;;;0.90;;
21860;SDS011;11095;48.066;8.540;2022-09-17T04:29:52;1.02;;;0.80;;
21860;SDS011;11095;48.066;8.540;2022-09-17T04:32:17;2.67;;;1.10;;
21860;SDS011;11095;48.066;8.540;2022-09-17T04:34:43;1.58;;;0.82;;
21860;SDS011;11095;48.066;8.540;2022-09-17T04:37:09;2.25;;;1.10;;
21860;SDS011;11095;48.066;8.540;2022-09-17T04:39:34;1.58;;;0.90;;
21860;SDS011;11095;48.066;8.540;2022-09-17T04:42:02;1.05;;;0.95;;
21860;SDS011;11095;48.066;8.540;2022-09-17T04:44:27;2.00;;;1.00;;
21860;SDS011;11095;48.066;8.540;2022-09-17T04:46:53;3.47;;;1.15;;
21860;SDS011;11095;48.066;8.540;2022-09-17T04:49:19;2.28;;;1.17;;
21860;SDS011;11095;48.066;8.540;2022-09-17T04:51:44;1.55;;;1.20;;
21860;SDS011;11095;48.066;8.540;2022-09-17T04:54:10;1.90;;;1.10;;
21860;SDS011;11095;48.066;8.540;2022-09-17T04:56:35;2.58;;;1.10;;
21860;SDS011;11095;48.066;8.540;2022-09-17T04:59:01;2.78;;;1.30;;
21860;SDS011;11095;48.066;8.540;2022-09-17T05:01:26;3.13;;;1.00;;
21860;SDS011;11095;48.066;8.540;2022-09-17T05:03:52;2.65;;;1.10;;
21860;SDS011;11095;48.066;8.540;2022-09-17T05:06:18;2.38;;;1.00;;
21860;SDS011;11095;48.066;8.540;2022-09-17T05:08:43;1.77;;;1.10;;
21860;SDS011;11095;48.066;8.540;2022-09-17T05:11:09;2.17;;;1.10;;
21860;SDS011;11095;48.066;8.540;2022-09-17T05:13:35;3.10;;;1.08;;
21860;SDS011;11095;48.066;8.540;2022-09-17T05:16:00;1.20;;;0.73;;
21860;SDS011;11095;48.066;8.540;2022-09-17T05:18:26;1.30;;;0.90;;
21860;SDS011;11095;48.066;8.540;2022-09-17T05:20:52;2.05;;;1.15;;
21860;SDS011;11095;48.066;8.540;2022-09-17T05:23:18;2.20;;;1.20;;
21860;SDS011;11095;48.066;8.540;2022-09-17T05:25:44;1.17;;;1.08;;
21860;SDS011;11095;48.066;8.540;2022-09-17T05:28:09;2.42;;;1.10;;
21860;SDS011;11095;48.066;8.540;2022-09-17T05:30:35;2.50;;;1.30;;
21860;SDS011;11095;48.066;8.540;2022-09-17T05:33:01;3.00;;;1.02;;
21860;SDS011;11095;48.066;8.540;2022-09-17T05:35:28;2.03;;;1.00;;
21860;SDS011;11095;48.066;8.540;2022-09-17T05:37:59;3.10;;;1.45;;
21860;SDS011;11095;48.066;8.540;2022-09-17T05:40:26;3.28;;;1.30;;
21860;SDS011;11095;48.066;8.540;2022-09-17T05:42:56;3.63;;;1.20;;
21860;SDS011;11095;48.066;8.540;2022-09-17T05:45:26;2.88;;;1.45;;
21860;SDS011;11095;48.066;8.540;2022-09-17T05:47:56;3.80;;;1.85;;
21860;SDS011;11095;48.066;8.540;2022-09-17T05:50:23;3.03;;;1.40;;
21860;SDS011;11095;48.066;8.540;2022-09-17T05:52:50;4.63;;;1.80;;
21860;SDS011;11095;48.066;8.540;2022-09-17T05:55:16;2.90;;;1.45;;
21860;SDS011;11095;48.066;8.540;2022-09-17T05:57:43;5.40;;;1.70;;
21860;SDS011;11095;48.066;8.540;2022-09-17T06:00:08;3.15;;;1.63;;
21860;SDS011;11095;48.066;8.540;2022-09-17T06:02:35;2.35;;;1.38;;
21860;SDS011;11095;48.066;8.540;2022-09-17T06:05:01;2.45;;;1.20;;
21860;SDS011;11095;48.066;8.540;2022-09-17T06:07:27;1.55;;;0.93;;
21860;SDS011;11095;48.066;8.540;2022-09-17T06:09:53;2.80;;;1.40;;
21860;SDS011;11095;48.066;8.540;2022-09-17T06:12:19;1.95;;;1.10;;
21860;SDS011;11095;48.066;8.540;2022-09-17T06:14:45;2.25;;;1.20;;
21860;SDS011;11095;48.066;8.540;2022-09-17T06:17:10;3.15;;;1.48;;
21860;SDS011;11095;48.066;8.540;2022-09-17T06:19:36;2.00;;;1.17;;
21860;SDS011;11095;48.066;8.540;2022-09-17T06:22:01;3.53;;;1.60;;
21860;SDS011;11095;48.066;8.540;2022-09-17T06:24:29;2.80;;;1.30;;
21860;SDS011;11095;48.066;8.540;2022-09-17T06:26:54;1.80;;;1.15;;
21860;SDS011;11095;48.066;8.540;2022-09-17T06:29:20;3.80;;;1.05;;
21860;SDS011;11095;48.066;8.540;2022-09-17T06:31:49;2.45;;;1.30;;
21860;SDS011;11095;48.066;8.540;2022-09-17T06:34:15;2.30;;;1.20;;
21860;SDS011;11095;48.066;8.540;2022-09-17T06:36:41;2.25;;;1.10;;
21860;SDS011;11095;48.066;8.540;2022-09-17T06:39:07;2.88;;;1.13;;
21860;SDS011;11095;48.066;8.540;2022-09-17T06:41:33;2.28;;;1.10;;
21860;SDS011;11095;48.066;8.540;2022-09-17T06:44:01;2.50;;;0.93;;
21860;SDS011;11095;48.066;8.540;2022-09-17T06:46:27;3.15;;;1.00;;
21860;SDS011;11095;48.066;8.540;2022-09-17T06:48:53;3.30;;;1.33;;
21860;SDS011;11095;48.066;8.540;2022-09-17T06:51:19;3.25;;;1.30;;
21860;SDS011;11095;48.066;8.540;2022-09-17T06:53:46;2.58;;;0.93;;
21860;SDS011;11095;48.066;8.540;2022-09-17T06:56:13;2.30;;;0.93;;
21860;SDS011;11095;48.066;8.540;2022-09-17T06:58:39;2.40;;;1.00;;
21860;SDS011;11095;48.066;8.540;2022-09-17T07:01:05;3.92;;;1.13;;
21860;SDS011;11095;48.066;8.540;2022-09-17T07:03:31;2.92;;;1.00;;
21860;SDS011;11095;48.066;8.540;2022-09-17T07:05:58;3.67;;;1.00;;
21860;SDS011;11095;48.066;8.540;2022-09-17T07:08:24;3.22;;;1.40;;
21860;SDS011;11095;48.066;8.540;2022-09-17T07:10:50;2.13;;;1.05;;
21860;SDS011;11095;48.066;8.540;2022-09-17T07:13:19;3.67;;;1.10;;
21860;SDS011;11095;48.066;8.540;2022-09-17T07:15:50;2.47;;;1.00;;
21860;SDS011;11095;48.066;8.540;2022-09-17T07:18:20;4.20;;;1.30;;
21860;SDS011;11095;48.066;8.540;2022-09-17T07:20:57;3.83;;;1.60;;
21860;SDS011;11095;48.066;8.540;2022-09-17T07:23:24;3.55;;;1.20;;
21860;SDS011;11095;48.066;8.540;2022-09-17T07:25:52;4.07;;;1.75;;
21860;SDS011;11095;48.066;8.540;2022-09-17T07:28:19;3.97;;;1.00;;
21860;SDS011;11095;48.066;8.540;2022-09-17T07:30:45;2.90;;;1.20;;
21860;SDS011;11095;48.066;8.540;2022-09-17T07:33:11;2.42;;;1.17;;
21860;SDS011;11095;48.066;8.540;2022-09-17T07:35:36;3.10;;;1.17;;
21860;SDS011;11095;48.066;8.540;2022-09-17T07:38:02;3.30;;;1.20;;
21860;SDS011;11095;48.066;8.540;2022-09-17T07:40:28;2.13;;;1.00;;
21860;SDS011;11095;48.066;8.540;2022-09-17T07:42:56;1.90;;;0.90;;
21860;SDS011;11095;48.066;8.540;2022-09-17T07:45:22;3.15;;;0.90;;
21860;SDS011;11095;48.066;8.540;2022-09-17T07:47:48;2.50;;;1.05;;
21860;SDS011;11095;48.066;8.540;2022-09-17T07:50:14;2.63;;;0.90;;
21860;SDS011;11095;48.066;8.540;2022-09-17T07:52:47;4.30;;;1.67;;
21860;SDS011;11095;48.066;8.540;2022-09-17T07:55:13;2.97;;;1.25;;
21860;SDS011;11095;48.066;8.540;2022-09-17T07:57:39;3.55;;;1.17;;
21860;SDS011;11095;48.066;8.540;2022-09-17T08:00:05;1.33;;;0.80;;
21860;SDS011;11095;48.066;8.540;2022-09-17T08:02:31;2.47;;;0.90;;
21860;SDS011;11095;48.066;8.540;2022-09-17T08:04:57;2.67;;;1.10;;
21860;SDS011;11095;48.066;8.540;2022-09-17T08:07:23;2.47;;;0.90;;
21860;SDS011;11095;48.066;8.540;2022-09-17T08:09:48;4.50;;;1.02;;
21860;SDS011;11095;48.066;8.540;2022-09-17T08:12:14;2.80;;;0.95;;
21860;SDS011;11095;48.066;8.540;2022-09-17T08:14:42;2.10;;;0.85;;
21860;SDS011;11095;48.066;8.540;2022-09-17T08:17:08;2.03;;;0.93;;
21860;SDS011;11095;48.066;8.540;2022-09-17T08:19:33;2.28;;;0.90;;
21860;SDS011;11095;48.066;8.540;2022-09-17T08:21:59;3.25;;;1.00;;
21860;SDS011;11095;48.066;8.540;2022-09-17T08:24:25;3.58;;;0.95;;
21860;SDS011;11095;48.066;8.540;2022-09-17T08:26:51;4.05;;;0.90;;
21860;SDS011;11095;48.066;8.540;2022-09-17T08:29:17;3.70;;;0.95;;
21860;SDS011;11095;48.066;8.540;2022-09-17T08:31:43;3.55;;;0.90;;
21860;SDS011;11095;48.066;8.540;2022-09-17T08:34:09;1.75;;;1.02;;
21860;SDS011;11095;48.066;8.540;2022-09-17T08:36:35;1.92;;;0.80;;
21860;SDS011;11095;48.066;8.540;2022-09-17T08:39:01;2.25;;;1.00;;
21860;SDS011;11095;48.066;8.540;2022-09-17T08:46:40;4.28;;;1.00;;
21860;SDS011;11095;48.066;8.540;2022-09-17T08:54:49;1.35;;;0.70;;
21860;SDS011;11095;48.066;8.540;2022-09-17T09:00:13;2.17;;;0.85;;
21860;SDS011;11095;48.066;8.540;2022-09-17T09:05:28;1.67;;;0.80;;
21860;SDS011;11095;48.066;8.540;2022-09-17T09:08:50;2.03;;;0.57;;
21860;SDS011;11095;48.066;8.540;2022-09-17T09:11:03;1.33;;;0.60;;
21860;SDS011;11095;48.066;8.540;2022-09-17T09:13:35;1.50;;;0.70;;
21860;SDS011;11095;48.066;8.540;2022-09-17T09:16:09;2.50;;;0.93;;
21860;SDS011;11095;48.066;8.540;2022-09-17T09:18:45;1.70;;;0.77;;
21860;SDS011;11095;48.066;8.540;2022-09-17T09:26:29;1.35;;;0.70;;
21860;SDS011;11095;48.066;8.540;2022-09-17T09:29:12;0.90;;;0.57;;
21860;SDS011;11095;48.066;8.540;2022-09-17T09:34:34;1.23;;;0.77;;
21860;SDS011;11095;48.066;8.540;2022-09-17T09:37:10;0.75;;;0.70;;
21860;SDS011;11095;48.066;8.540;2022-09-17T09:39:40;1.90;;;0.90;;
21860;SDS011;11095;48.066;8.540;2022-09-17T09:45:00;1.05;;;0.70;;
21860;SDS011;11095;48.066;8.540;2022-09-17T09:56:20;1.83;;;0.90;;
21860;SDS011;11095;48.066;8.540;2022-09-17T09:58:45;1.70;;;1.00;;
21860;SDS011;11095;48.066;8.540;2022-09-17T10:01:15;1.58;;;0.98;;
21860;SDS011;11095;48.066;8.540;2022-09-17T10:03:44;1.88;;;0.85;;
21860;SDS011;11095;48.066;8.540;2022-09-17T10:06:12;1.08;;;0.90;;
21860;SDS011;11095;48.066;8.540;2022-09-17T10:08:39;1.23;;;0.90;;
21860;SDS011;11095;48.066;8.540;2022-09-17T10:11:26;1.73;;;1.15;;
21860;SDS011;11095;48.066;8.540;2022-09-17T10:16:43;0.88;;;0.63;;
21860;SDS011;11095;48.066;8.540;2022-09-17T10:24:01;0.80;;;0.50;;
21860;SDS011;11095;48.066;8.540;2022-09-17T10:26:32;1.67;;;0.80;;
21860;SDS011;11095;48.066;8.540;2022-09-17T10:29:16;1.67;;;0.52;;
21860;SDS011;11095;48.066;8.540;2022-09-17T10:34:20;1.25;;;0.68;;
21860;SDS011;11095;48.066;8.540;2022-09-17T10:36:47;0.60;;;0.60;;
21860;SDS011;11095;48.066;8.540;2022-09-17T10:39:35;0.60;;;0.60;;
21860;SDS011;11095;48.066;8.540;2022-09-17T10:42:03;1.42;;;0.77;;
21860;SDS011;11095;48.066;8.540;2022-09-17T10:44:35;0.68;;;0.55;;
21860;SDS011;11095;48.066;8.540;2022-09-17T10:47:44;1.10;;;0.70;;
21860;SDS011;11095;48.066;8.540;2022-09-17T10:52:28;0.88;;;0.60;;
21860;SDS011;11095;48.066;8.540;2022-09-17T10:57:51;0.52;;;0.50;;
21860;SDS011;11095;48.066;8.540;2022-09-17T11:00:21;0.85;;;0.50;;
21860;SDS011;11095;48.066;8.540;2022-09-17T11:05:47;2.55;;;0.70;;
21860;SDS011;11095;48.066;8.540;2022-09-17T11:27:50;1.23;;;0.77;;
21860;SDS011;11095;48.066;8.540;2022-09-17T11:30:18;3.22;;;0.88;;
21860;SDS011;11095;48.066;8.540;2022-09-17T11:33:01;3.00;;;0.77;;
21860;SDS011;11095;48.066;8.540;2022-09-17T11:35:34;1.75;;;0.55;;
21860;SDS011;11095;48.066;8.540;2022-09-17T11:40:46;0.75;;;0.60;;
21860;SDS011;11095;48.066;8.540;2022-09-17T11:43:35;0.60;;;0.50;;
21860;SDS011;11095;48.066;8.540;2022-09-17T11:46:08;0.65;;;0.50;;
21860;SDS011;11095;48.066;8.540;2022-09-17T11:48:52;1.10;;;0.68;;
21860;SDS011;11095;48.066;8.540;2022-09-17T11:51:46;2.35;;;0.93;;
21860;SDS011;11095;48.066;8.540;2022-09-17T11:54:32;0.55;;;0.50;;
21860;SDS011;11095;48.066;8.540;2022-09-17T11:57:12;0.75;;;0.70;;
21860;SDS011;11095;48.066;8.540;2022-09-17T12:15:59;1.92;;;0.82;;
21860;SDS011;11095;48.066;8.540;2022-09-17T12:18:46;1.55;;;0.70;;
21860;SDS011;11095;48.066;8.540;2022-09-17T12:21:37;1.08;;;0.80;;
21860;SDS011;11095;48.066;8.540;2022-09-17T12:49:22;2.10;;;0.80;;
21860;SDS011;11095;48.066;8.540;2022-09-17T12:55:11;2.75;;;1.00;;
21860;SDS011;11095;48.066;8.540;2022-09-17T13:00:25;1.05;;;0.77;;
21860;SDS011;11095;48.066;8.540;2022-09-17T13:21:31;0.68;;;0.60;;
21860;SDS011;11095;48.066;8.540;2022-09-17T13:24:13;0.77;;;0.40;;
21860;SDS011;11095;48.066;8.540;2022-09-17T13:26:40;0.90;;;0.43;;
21860;SDS011;11095;48.066;8.540;2022-09-17T13:29:09;0.40;;;0.40;;
21860;SDS011;11095;48.066;8.540;2022-09-17T13:34:03;1.58;;;0.60;;
21860;SDS011;11095;48.066;8.540;2022-09-17T13:36:57;0.98;;;0.57;;
21860;SDS011;11095;48.066;8.540;2022-09-17T13:39:32;1.33;;;0.70;;
21860;SDS011;11095;48.066;8.540;2022-09-17T13:45:07;0.93;;;0.70;;
21860;SDS011;11095;48.066;8.540;2022-09-17T13:47:34;0.82;;;0.70;;
21860;SDS011;11095;48.066;8.540;2022-09-17T13:50:09;1.65;;;0.80;;
21860;SDS011;11095;48.066;8.540;2022-09-17T13:52:48;1.52;;;0.70;;
21860;SDS011;11095;48.066;8.540;2022-09-17T14:01:00;1.23;;;0.77;;
21860;SDS011;11095;48.066;8.540;2022-09-17T14:29:30;1.27;;;0.90;;
21860;SDS011;11095;48.066;8.540;2022-09-17T14:32:11;1.63;;;1.10;;
21860;SDS011;11095;48.066;8.540;2022-09-17T14:34:46;1.60;;;0.90;;
21860;SDS011;11095;48.066;8.540;2022-09-17T14:37:14;1.63;;;0.90;;
21860;SDS011;11095;48.066;8.540;2022-09-17T14:39:43;1.67;;;0.80;;
21860;SDS011;11095;48.066;8.540;2022-09-17T14:42:15;1.95;;;1.17;;
21860;SDS011;11095;48.066;8.540;2022-09-17T14:44:56;1.90;;;1.08;;
21860;SDS011;11095;48.066;8.540;2022-09-17T14:47:27;2.65;;;1.05;;
21860;SDS011;11095;48.066;8.540;2022-09-17T14:49:53;1.95;;;0.90;;
21860;SDS011;11095;48.066;8.540;2022-09-17T14:54:47;1.27;;;0.70;;
21860;SDS011;11095;48.066;8.540;2022-09-17T14:57:19;2.58;;;1.00;;
21860;SDS011;11095;48.066;8.540;2022-09-17T14:59:54;1.52;;;0.88;;
21860;SDS011;11095;48.066;8.540;2022-09-17T15:04:59;2.75;;;0.90;;
21860;SDS011;11095;48.066;8.540;2022-09-17T15:07:26;1.42;;;0.90;;
21860;SDS011;11095;48.066;8.540;2022-09-17T15:09:52;1.92;;;0.90;;
21860;SDS011;11095;48.066;8.540;2022-09-17T15:12:21;2.72;;;1.10;;
21860;SDS011;11095;48.066;8.540;2022-09-17T15:14:52;2.90;;;1.20;;
21860;SDS011;11095;48.066;8.540;2022-09-17T15:17:19;1.65;;;1.10;;
21860;SDS011;11095;48.066;8.540;2022-09-17T15:19:46;1.75;;;0.93;;
21860;SDS011;11095;48.066;8.540;2022-09-17T15:22:17;2.65;;;1.20;;
21860;SDS011;11095;48.066;8.540;2022-09-17T15:27:30;2.50;;;1.20;;
21860;SDS011;11095;48.066;8.540;2022-09-17T15:30:03;3.13;;;1.20;;
21860;SDS011;11095;48.066;8.540;2022-09-17T15:32:33;1.42;;;1.10;;
21860;SDS011;11095;48.066;8.540;2022-09-17T15:40:35;2.28;;;1.10;;
21860;SDS011;11095;48.066;8.540;2022-09-17T15:43:05;2.47;;;1.20;;
21860;SDS011;11095;48.066;8.540;2022-09-17T15:45:40;2.50;;;0.90;;
21860;SDS011;11095;48.066;8.540;2022-09-17T15:51:04;2.22;;;0.93;;
21860;SDS011;11095;48.066;8.540;2022-09-17T15:53:38;1.38;;;0.95;;
21860;SDS011;11095;48.066;8.540;2022-09-17T15:56:16;2.90;;;0.90;;
21860;SDS011;11095;48.066;8.540;2022-09-17T16:08:45;2.85;;;0.98;;
21860;SDS011;11095;48.066;8.540;2022-09-17T16:11:16;2.20;;;0.80;;
21860;SDS011;11095;48.066;8.540;2022-09-17T16:13:49;1.45;;;0.80;;
21860;SDS011;11095;48.066;8.540;2022-09-17T16:16:21;1.48;;;0.80;;
21860;SDS011;11095;48.066;8.540;2022-09-17T16:18:48;1.55;;;0.80;;
21860;SDS011;11095;48.066;8.540;2022-09-17T16:21:15;1.90;;;1.08;;
21860;SDS011;11095;48.066;8.540;2022-09-17T16:23:42;2.05;;;1.15;;
21860;SDS011;11095;48.066;8.540;2022-09-17T16:26:09;1.77;;;1.10;;
21860;SDS011;11095;48.066;8.540;2022-09-17T16:28:39;3.08;;;1.08;;
21860;SDS011;11095;48.066;8.540;2022-09-17T16:31:06;5.00;;;1.10;;
21860;SDS011;11095;48.066;8.540;2022-09-17T16:36:02;2.33;;;1.00;;
21860;SDS011;11095;48.066;8.540;2022-09-17T16:38:28;2.17;;;0.93;;
21860;SDS011;11095;48.066;8.540;2022-09-17T16:40:54;1.52;;;0.80;;
21860;SDS011;11095;48.066;8.540;2022-09-17T16:43:19;3.03;;;0.80;;
21860;SDS011;11095;48.066;8.540;2022-09-17T16:46:01;3.15;;;1.00;;
21860;SDS011;11095;48.066;8.540;2022-09-17T16:48:27;1.52;;;0.93;;
21860;SDS011;11095;48.066;8.540;2022-09-17T16:50:53;1.73;;;0.80;;
21860;SDS011;11095;48.066;8.540;2022-09-17T16:53:19;1.10;;;0.90;;
21860;SDS011;11095;48.066;8.540;2022-09-17T16:55:45;2.22;;;1.00;;
21860;SDS011;11095;48.066;8.540;2022-09-17T16:58:11;2.55;;;0.90;;
21860;SDS011;11095;48.066;8.540;2022-09-17T17:00:36;1.58;;;0.90;;
21860;SDS011;11095;48.066;8.540;2022-09-17T17:03:02;2.28;;;0.80;;
21860;SDS011;11095;48.066;8.540;2022-09-17T17:05:29;2.13;;;1.25;;
21860;SDS011;11095;48.066;8.540;2022-09-17T17:07:55;3.95;;;1.00;;
21860;SDS011;11095;48.066;8.540;2022-09-17T17:10:22;2.30;;;1.00;;
21860;SDS011;11095;48.066;8.540;2022-09-17T17:12:50;1.63;;;0.90;;
21860;SDS011;11095;48.066;8.540;2022-09-17T17:15:16;2.60;;;1.30;;
21860;SDS011;11095;48.066;8.540;2022-09-17T17:17:43;1.42;;;1.20;;
21860;SDS011;11095;48.066;8.540;2022-09-17T17:20:08;3.38;;;1.50;;
21860;SDS011;11095;48.066;8.540;2022-09-17T17:22:37;1.83;;;1.33;;
21860;SDS011;11095;48.066;8.540;2022-09-17T17:25:08;3.05;;;1.60;;
21860;SDS011;11095;48.066;8.540;2022-09-17T17:27:34;3.55;;;1.63;;
21860;SDS011;11095;48.066;8.540;2022-09-17T17:30:00;2.78;;;1.25;;
21860;SDS011;11095;48.066;8.540;2022-09-17T17:32:29;2.77;;;1.60;;
21860;SDS011;11095;48.066;8.540;2022-09-17T17:34:55;3.58;;;1.92;;
21860;SDS011;11095;48.066;8.540;2022-09-17T17:37:20;4.35;;;2.08;;
21860;SDS011;11095;48.066;8.540;2022-09-17T17:39:47;6.07;;;2.65;;
21860;SDS011;11095;48.066;8.540;2022-09-17T17:42:13;4.32;;;1.67;;
21860;SDS011;11095;48.066;8.540;2022-09-17T17:44:39;2.28;;;1.30;;
21860;SDS011;11095;48.066;8.540;2022-09-17T17:47:05;4.82;;;1.80;;
21860;SDS011;11095;48.066;8.540;2022-09-17T17:49:31;4.10;;;2.00;;
21860;SDS011;11095;48.066;8.540;2022-09-17T17:51:59;2.13;;;1.47;;
21860;SDS011;11095;48.066;8.540;2022-09-17T17:54:25;3.17;;;1.80;;
21860;SDS011;11095;48.066;8.540;2022-09-17T17:56:54;5.00;;;1.60;;
21860;SDS011;11095;48.066;8.540;2022-09-17T17:59:20;2.05;;;1.20;;
21860;SDS011;11095;48.066;8.540;2022-09-17T18:01:45;2.33;;;1.60;;
21860;SDS011;11095;48.066;8.540;2022-09-17T18:04:11;2.75;;;1.02;;
21860;SDS011;11095;48.066;8.540;2022-09-17T18:06:37;3.17;;;1.15;;
21860;SDS011;11095;48.066;8.540;2022-09-17T18:09:03;1.77;;;0.98;;
21860;SDS011;11095;48.066;8.540;2022-09-17T18:11:30;1.73;;;0.85;;
21860;SDS011;11095;48.066;8.540;2022-09-17T18:13:56;1.30;;;0.80;;
21860;SDS011;11095;48.066;8.540;2022-09-17T18:16:24;3.20;;;1.10;;
21860;SDS011;11095;48.066;8.540;2022-09-17T18:18:49;1.58;;;1.00;;
21860;SDS011;11095;48.066;8.540;2022-09-17T18:21:16;2.78;;;1.10;;
21860;SDS011;11095;48.066;8.540;2022-09-17T18:23:44;1.80;;;0.95;;
21860;SDS011;11095;48.066;8.540;2022-09-17T18:26:11;2.97;;;0.98;;
21860;SDS011;11095;48.066;8.540;2022-09-17T18:28:39;2.40;;;1.00;;
21860;SDS011;11095;48.066;8.540;2022-09-17T18:31:05;2.05;;;1.10;;
21860;SDS011;11095;48.066;8.540;2022-09-17T18:33:32;1.27;;;1.00;;
21860;SDS011;11095;48.066;8.540;2022-09-17T18:36:03;2.42;;;1.10;;
21860;SDS011;11095;48.066;8.540;2022-09-17T18:38:29;2.25;;;1.40;;
21860;SDS011;11095;48.066;8.540;2022-09-17T18:41:01;1.60;;;1.13;;
21860;SDS011;11095;48.066;8.540;2022-09-17T18:43:28;2.30;;;1.30;;
21860;SDS011;11095;48.066;8.540;2022-09-17T18:45:54;3.33;;;1.40;;
21860;SDS011;11095;48.066;8.540;2022-09-17T18:48:21;1.80;;;1.20;;
21860;SDS011;11095;48.066;8.540;2022-09-17T18:50:56;2.53;;;1.10;;
21860;SDS011;11095;48.066;8.540;2022-09-17T18:53:27;2.53;;;1.20;;
21860;SDS011;11095;48.066;8.540;2022-09-17T18:55:55;1.40;;;0.80;;
21860;SDS011;11095;48.066;8.540;2022-09-17T18:58:23;1.33;;;0.85;;
21860;SDS011;11095;48.066;8.540;2022-09-17T19:00:49;3.00;;;1.00;;
21860;SDS011;11095;48.066;8.540;2022-09-17T19:03:15;2.53;;;1.30;;
21860;SDS011;11095;48.066;8.540;2022-09-17T19:05:41;2.55;;;1.20;;
21860;SDS011;11095;48.066;8.540;2022-09-17T19:08:07;1.17;;;0.70;;
21860;SDS011;11095;48.066;8.540;2022-09-17T19:10:32;1.45;;;0.98;;
21860;SDS011;11095;48.066;8.540;2022-09-17T19:12:59;1.02;;;0.75;;
21860;SDS011;11095;48.066;8.540;2022-09-17T19:15:25;1.42;;;0.80;;
21860;SDS011;11095;48.066;8.540;2022-09-17T19:17:54;2.15;;;0.90;;
21860;SDS011;11095;48.066;8.540;2022-09-17T19:20:22;1.65;;;1.00;;
21860;SDS011;11095;48.066;8.540;2022-09-17T19:22:49;1.95;;;0.82;;
21860;SDS011;11095;48.066;8.540;2022-09-17T19:25:15;1.73;;;0.90;;